Time;durP1;ratioP1;P1;durP2;ratioP2;P2;SDS_P1;SDS_P2;PMS_P1;PMS_P2;Temp;Humidity;BMP_temperature;BMP_pressure;BME280_temperature;BME280_humidity;BME280_pressure;Samples;Min_cycle;Max_cycle;Signal;HPM_P1;HPM_P2
2023/07/08 00:02:29;;;;;;;13.73;7.65;;;;;;;;;;6329327;28;20063;-79
2023/07/08 00:05:38;;;;;;;27.27;17.30;;;;;;;;;;6323713;28;20056;-79
2023/07/08 00:08:40;;;;;;;8.00;4.40;;;;;;;;;;6326450;28;20048;-79
2023/07/08 00:11:42;;;;;;;8.55;3.95;;;;;;;;;;6324499;28;20074;-79
2023/07/08 00:14:45;;;;;;;8.57;4.20;;;;;;;;;;6323367;28;20071;-81
2023/07/08 00:17:47;;;;;;;9.40;3.70;;;;;;;;;;6328142;28;20048;-83
2023/07/08 00:20:49;;;;;;;8.77;3.88;;;;;;;;;;6327240;28;20047;-79
2023/07/08 00:23:52;;;;;;;8.05;3.75;;;;;;;;;;6327208;28;20273;-82
2023/07/08 00:26:53;;;;;;;7.35;3.47;;;;;;;;;;6326935;28;20066;-80
2023/07/08 00:29:56;;;;;;;10.70;4.70;;;;;;;;;;6326934;28;20070;-78
2023/07/08 00:32:58;;;;;;;7.18;4.07;;;;;;;;;;6325799;28;20048;-78
2023/07/08 00:35:59;;;;;;;5.72;3.90;;;;;;;;;;6326689;28;20060;-79
2023/07/08 00:39:02;;;;;;;6.13;3.78;;;;;;;;;;6325394;28;20052;-79
2023/07/08 00:42:10;;;;;;;8.30;3.67;;;;;;;;;;6326295;28;20105;-78
2023/07/08 00:45:17;;;;;;;7.35;3.70;;;;;;;;;;6325941;28;20063;-79
2023/07/08 00:48:23;;;;;;;7.95;4.03;;;;;;;;;;6325767;28;20278;-78
2023/07/08 00:51:25;;;;;;;5.25;3.55;;;;;;;;;;6324892;28;20068;-81
2023/07/08 00:54:26;;;;;;;6.75;3.80;;;;;;;;;;6325473;28;20166;-82
2023/07/08 00:57:30;;;;;;;6.13;4.05;;;;;;;;;;6324761;28;20052;-82
2023/07/08 01:00:31;;;;;;;14.48;4.30;;;;;;;;;;6325206;28;20063;-81
2023/07/08 01:03:35;;;;;;;5.03;3.45;;;;;;;;;;6327684;28;20344;-83
2023/07/08 01:06:39;;;;;;;7.18;4.05;;;;;;;;;;6325388;28;20052;-79
2023/07/08 01:09:43;;;;;;;5.72;3.65;;;;;;;;;;6329222;28;20059;-80
2023/07/08 01:12:46;;;;;;;7.00;4.05;;;;;;;;;;6327597;28;20336;-81
2023/07/08 01:15:49;;;;;;;7.10;3.63;;;;;;;;;;6325418;28;20328;-79
2023/07/08 01:18:53;;;;;;;7.10;4.18;;;;;;;;;;6323614;28;20340;-79
2023/07/08 01:22:00;;;;;;;8.98;3.60;;;;;;;;;;6326660;28;20067;-80
2023/07/08 01:25:03;;;;;;;5.82;3.47;;;;;;;;;;6326260;28;20040;-81
2023/07/08 01:28:05;;;;;;;7.22;3.75;;;;;;;;;;6325709;28;20068;-78
2023/07/08 01:31:07;;;;;;;9.13;3.50;;;;;;;;;;6322356;28;20052;-79
2023/07/08 01:34:09;;;;;;;7.40;3.78;;;;;;;;;;6325934;28;20048;-80
2023/07/08 01:37:13;;;;;;;7.15;3.58;;;;;;;;;;6325767;28;20052;-79
2023/07/08 01:40:15;;;;;;;6.35;3.70;;;;;;;;;;6324593;28;20136;-79
2023/07/08 01:43:16;;;;;;;5.63;3.80;;;;;;;;;;6324395;28;20048;-80
2023/07/08 01:46:21;;;;;;;5.78;3.40;;;;;;;;;;6323244;28;20267;-79
2023/07/08 01:49:23;;;;;;;7.45;3.70;;;;;;;;;;6325504;28;20217;-79
2023/07/08 01:52:26;;;;;;;9.65;3.70;;;;;;;;;;6324683;28;20048;-80
2023/07/08 01:55:30;;;;;;;9.23;3.97;;;;;;;;;;6323620;28;20044;-80
2023/07/08 01:58:31;;;;;;;6.25;3.53;;;;;;;;;;6325604;28;20074;-79
2023/07/08 02:01:33;;;;;;;6.55;3.50;;;;;;;;;;6325240;28;20320;-78
2023/07/08 02:04:34;;;;;;;6.43;3.50;;;;;;;;;;6323215;28;20052;-79
2023/07/08 02:07:37;;;;;;;5.25;3.22;;;;;;;;;;6326720;28;20328;-78
2023/07/08 02:10:39;;;;;;;9.88;4.05;;;;;;;;;;6322390;28;20282;-80
2023/07/08 02:13:41;;;;;;;6.85;3.50;;;;;;;;;;6324518;28;20940;-79
2023/07/08 02:16:42;;;;;;;6.10;3.67;;;;;;;;;;6323452;28;20782;-78
2023/07/08 02:19:44;;;;;;;6.28;3.53;;;;;;;;;;6324283;28;20052;-79
2023/07/08 02:22:47;;;;;;;6.97;3.10;;;;;;;;;;6324560;28;20089;-79
2023/07/08 02:25:52;;;;;;;7.25;3.67;;;;;;;;;;6323281;28;20105;-78
2023/07/08 02:28:53;;;;;;;4.80;3.08;;;;;;;;;;6323236;28;20059;-80
2023/07/08 02:31:55;;;;;;;4.43;3.00;;;;;;;;;;6323744;28;20055;-81
2023/07/08 02:34:56;;;;;;;7.60;3.45;;;;;;;;;;6322189;28;20235;-80
2023/07/08 02:37:59;;;;;;;6.32;3.05;;;;;;;;;;6326678;28;20059;-80
2023/07/08 02:41:01;;;;;;;9.65;3.63;;;;;;;;;;6324291;28;20060;-80
2023/07/08 02:44:02;;;;;;;5.72;3.08;;;;;;;;;;6328444;28;20063;-80
2023/07/08 02:47:04;;;;;;;6.03;3.20;;;;;;;;;;6329471;28;20075;-80
2023/07/08 02:50:06;;;;;;;7.03;3.33;;;;;;;;;;6330154;28;20051;-79
2023/07/08 02:53:09;;;;;;;6.25;2.88;;;;;;;;;;6326925;28;20143;-79
2023/07/08 02:56:11;;;;;;;5.15;3.03;;;;;;;;;;6325847;28;20144;-79
2023/07/08 02:59:12;;;;;;;7.75;3.45;;;;;;;;;;6328769;28;20344;-80
2023/07/08 03:02:14;;;;;;;5.53;3.45;;;;;;;;;;6326853;28;20674;-80
2023/07/08 03:05:15;;;;;;;6.93;3.38;;;;;;;;;;6328205;28;20052;-80
2023/07/08 03:08:18;;;;;;;6.88;3.35;;;;;;;;;;6328386;28;20051;-81
2023/07/08 03:11:20;;;;;;;6.68;2.65;;;;;;;;;;6328211;28;20054;-81
2023/07/08 03:14:21;;;;;;;6.80;3.28;;;;;;;;;;6329025;28;20051;-80
2023/07/08 03:17:23;;;;;;;5.13;3.38;;;;;;;;;;6325921;28;20047;-80
2023/07/08 03:20:24;;;;;;;7.50;3.45;;;;;;;;;;6326667;28;20319;-80
2023/07/08 03:23:27;;;;;;;5.35;3.17;;;;;;;;;;6327489;28;20047;-80
2023/07/08 03:26:28;;;;;;;5.65;3.17;;;;;;;;;;6327702;28;20355;-80
2023/07/08 03:29:30;;;;;;;4.93;3.10;;;;;;;;;;6328135;28;20311;-81
2023/07/08 03:32:32;;;;;;;5.55;3.15;;;;;;;;;;6330245;28;20067;-80
2023/07/08 03:35:33;;;;;;;6.35;2.97;;;;;;;;;;6326614;28;20055;-82
2023/07/08 03:38:36;;;;;;;9.65;3.55;;;;;;;;;;6327326;28;20056;-80
2023/07/08 03:41:37;;;;;;;6.63;3.42;;;;;;;;;;6327124;28;20397;-80
2023/07/08 03:44:39;;;;;;;8.73;3.33;;;;;;;;;;6326051;28;20348;-80
2023/07/08 03:47:40;;;;;;;5.90;3.08;;;;;;;;;;6323939;28;20063;-80
2023/07/08 03:50:42;;;;;;;7.75;2.78;;;;;;;;;;6324862;28;20071;-79
2023/07/08 03:53:45;;;;;;;5.90;3.03;;;;;;;;;;6326894;28;20060;-80
2023/07/08 03:56:46;;;;;;;5.25;2.95;;;;;;;;;;6326592;28;20287;-78
2023/07/08 03:59:48;;;;;;;4.38;3.05;;;;;;;;;;6327624;28;20324;-82
2023/07/08 04:02:49;;;;;;;5.97;2.90;;;;;;;;;;6327405;28;20278;-81
2023/07/08 04:05:50;;;;;;;5.00;3.20;;;;;;;;;;6327204;28;20052;-79
2023/07/08 04:08:53;;;;;;;8.40;3.42;;;;;;;;;;6325476;28;20051;-80
2023/07/08 04:11:55;;;;;;;6.85;3.25;;;;;;;;;;6327667;28;20397;-81
2023/07/08 04:14:56;;;;;;;5.22;3.13;;;;;;;;;;6327402;28;20063;-83
2023/07/08 04:17:58;;;;;;;9.35;3.40;;;;;;;;;;6326910;28;20060;-80
2023/07/08 04:20:59;;;;;;;6.03;3.05;;;;;;;;;;6325706;28;20224;-78
2023/07/08 04:24:02;;;;;;;5.80;3.05;;;;;;;;;;6325022;28;20059;-81
2023/07/08 04:27:04;;;;;;;6.35;3.22;;;;;;;;;;6326015;28;20197;-80
2023/07/08 04:30:06;;;;;;;7.38;3.08;;;;;;;;;;6326367;28;20059;-80
2023/07/08 04:33:08;;;;;;;4.70;2.95;;;;;;;;;;6325260;28;20340;-81
2023/07/08 04:36:13;;;;;;;6.05;3.30;;;;;;;;;;6324997;28;20280;-81
2023/07/08 04:39:16;;;;;;;4.97;3.00;;;;;;;;;;6326354;28;20876;-82
2023/07/08 04:42:18;;;;;;;6.57;3.28;;;;;;;;;;6327549;28;20086;-80
2023/07/08 04:45:20;;;;;;;8.85;3.42;;;;;;;;;;6324932;28;20059;-80
2023/07/08 04:48:22;;;;;;;6.53;3.40;;;;;;;;;;6326718;28;20059;-80
2023/07/08 04:51:24;;;;;;;5.75;3.15;;;;;;;;;;6325279;28;20239;-80
2023/07/08 04:54:27;;;;;;;5.45;2.97;;;;;;;;;;6324282;28;20082;-79
2023/07/08 04:57:28;;;;;;;5.38;3.33;;;;;;;;;;6323625;28;20089;-80
2023/07/08 05:00:30;;;;;;;6.05;3.25;;;;;;;;;;6325111;28;20103;-81
2023/07/08 05:03:31;;;;;;;5.95;3.55;;;;;;;;;;6325403;28;20047;-80
2023/07/08 05:06:33;;;;;;;3.72;2.80;;;;;;;;;;6323382;28;20079;-80
2023/07/08 05:09:36;;;;;;;6.40;2.85;;;;;;;;;;6325360;28;20040;-79
2023/07/08 05:12:37;;;;;;;5.18;3.10;;;;;;;;;;6327814;28;20063;-79
2023/07/08 05:15:39;;;;;;;5.57;3.22;;;;;;;;;;6323504;28;20063;-79
2023/07/08 05:18:40;;;;;;;7.80;3.50;;;;;;;;;;6323096;28;20143;-80
2023/07/08 05:21:45;;;;;;;6.15;3.88;;;;;;;;;;6325447;28;20054;-79
2023/07/08 05:24:47;;;;;;;6.50;3.45;;;;;;;;;;6323258;28;20052;-80
2023/07/08 05:27:49;;;;;;;7.70;3.40;;;;;;;;;;6323784;28;20324;-80
2023/07/08 05:30:53;;;;;;;6.18;3.42;;;;;;;;;;6324157;28;20048;-80
2023/07/08 05:33:54;;;;;;;6.28;3.03;;;;;;;;;;6325088;28;20055;-80
2023/07/08 05:36:56;;;;;;;7.03;3.33;;;;;;;;;;6323026;28;20090;-80
2023/07/08 05:40:01;;;;;;;6.75;3.50;;;;;;;;;;6321522;28;20089;-80
2023/07/08 05:43:03;;;;;;;5.40;3.40;;;;;;;;;;6325120;28;20056;-78
2023/07/08 05:46:04;;;;;;;6.25;3.72;;;;;;;;;;6324693;28;20673;-79
2023/07/08 05:49:05;;;;;;;7.68;3.67;;;;;;;;;;6324132;28;20132;-79
2023/07/08 05:52:10;;;;;;;7.32;3.50;;;;;;;;;;6324006;28;20048;-78
2023/07/08 05:55:13;;;;;;;6.47;3.35;;;;;;;;;;6323464;28;20235;-78
2023/07/08 05:58:15;;;;;;;7.15;3.63;;;;;;;;;;6325234;28;20256;-77
2023/07/08 06:01:18;;;;;;;4.95;3.38;;;;;;;;;;6325188;28;20048;-77
2023/07/08 06:04:19;;;;;;;7.75;3.30;;;;;;;;;;6323972;28;20054;-77
2023/07/08 06:07:21;;;;;;;7.35;3.45;;;;;;;;;;6325769;28;20075;-77
2023/07/08 06:10:24;;;;;;;5.60;3.42;;;;;;;;;;6325170;28;20107;-80
2023/07/08 06:13:25;;;;;;;7.82;3.60;;;;;;;;;;6322850;28;20051;-77
2023/07/08 06:16:26;;;;;;;8.65;3.25;;;;;;;;;;6325551;28;20051;-80
2023/07/08 06:19:28;;;;;;;5.57;3.30;;;;;;;;;;6323302;28;20055;-77
2023/07/08 06:22:30;;;;;;;6.88;3.90;;;;;;;;;;6325254;28;20059;-81
2023/07/08 06:25:33;;;;;;;8.25;3.60;;;;;;;;;;6322755;28;20048;-80
2023/07/08 06:28:34;;;;;;;5.38;2.95;;;;;;;;;;6324448;28;20044;-81
2023/07/08 06:31:36;;;;;;;7.30;3.45;;;;;;;;;;6323836;28;20336;-80
2023/07/08 06:34:37;;;;;;;6.70;3.60;;;;;;;;;;6323361;28;20064;-80
2023/07/08 06:37:39;;;;;;;9.05;3.42;;;;;;;;;;6319872;28;20051;-81
2023/07/08 06:40:42;;;;;;;8.18;3.40;;;;;;;;;;6323268;28;20109;-77
2023/07/08 06:43:43;;;;;;;7.80;3.92;;;;;;;;;;6323051;28;20275;-81
2023/07/08 06:46:45;;;;;;;7.10;3.88;;;;;;;;;;6322856;28;20056;-78
2023/07/08 06:49:46;;;;;;;4.63;3.53;;;;;;;;;;6322555;28;20048;-78
2023/07/08 06:52:48;;;;;;;7.65;3.42;;;;;;;;;;6327039;28;20052;-79
2023/07/08 06:55:51;;;;;;;5.20;3.50;;;;;;;;;;6326953;28;20046;-78
2023/07/08 06:58:52;;;;;;;4.75;3.28;;;;;;;;;;6328201;28;20288;-79
2023/07/08 07:01:53;;;;;;;5.97;3.30;;;;;;;;;;6330228;28;20048;-78
2023/07/08 07:04:56;;;;;;;6.10;3.45;;;;;;;;;;6328371;28;20048;-78
2023/07/08 07:07:57;;;;;;;5.20;2.90;;;;;;;;;;6327762;28;20044;-78
2023/07/08 07:11:00;;;;;;;7.25;3.10;;;;;;;;;;6330603;28;20051;-77
2023/07/08 07:14:02;;;;;;;6.40;3.55;;;;;;;;;;6327856;28;20052;-77
2023/07/08 07:17:03;;;;;;;6.80;3.97;;;;;;;;;;6325528;28;20044;-78
2023/07/08 07:20:05;;;;;;;7.13;3.42;;;;;;;;;;6328659;28;20891;-78
2023/07/08 07:23:07;;;;;;;6.40;3.67;;;;;;;;;;6326827;28;20048;-78
2023/07/08 07:26:10;;;;;;;5.22;3.78;;;;;;;;;;6324586;28;20052;-77
2023/07/08 07:29:11;;;;;;;7.72;3.67;;;;;;;;;;6329526;28;20359;-79
2023/07/08 07:32:13;;;;;;;4.95;3.38;;;;;;;;;;6327695;28;20048;-78
2023/07/08 07:35:15;;;;;;;5.65;3.47;;;;;;;;;;6325704;28;20240;-78
2023/07/08 07:38:17;;;;;;;5.93;2.80;;;;;;;;;;6326793;28;20298;-78
2023/07/08 07:41:19;;;;;;;6.03;3.17;;;;;;;;;;6324893;28;20101;-78
2023/07/08 07:44:21;;;;;;;5.55;3.17;;;;;;;;;;6326630;28;20064;-77
2023/07/08 07:47:22;;;;;;;6.53;3.33;;;;;;;;;;6325427;28;20052;-79
2023/07/08 07:50:24;;;;;;;5.93;3.25;;;;;;;;;;6326727;28;20047;-78
2023/07/08 07:53:26;;;;;;;7.05;3.67;;;;;;;;;;6326763;28;20070;-78
2023/07/08 07:56:28;;;;;;;7.95;3.75;;;;;;;;;;6325709;28;20097;-78
2023/07/08 07:59:30;;;;;;;5.95;3.33;;;;;;;;;;6326254;28;20089;-79
2023/07/08 08:02:31;;;;;;;5.57;3.20;;;;;;;;;;6324860;28;20056;-80
2023/07/08 08:05:33;;;;;;;5.93;2.90;;;;;;;;;;6325519;28;20048;-78
2023/07/08 08:08:34;;;;;;;6.75;3.20;;;;;;;;;;6323741;28;20056;-78
2023/07/08 08:11:37;;;;;;;5.38;3.00;;;;;;;;;;6325877;28;20052;-79
2023/07/08 08:14:38;;;;;;;;;;;;;;;;;;6324457;28;20365;-79
2023/07/08 08:17:40;;;;;;;5.55;2.78;;;;;;;;;;6324628;28;20205;-78
2023/07/08 08:20:41;;;;;;;7.15;3.38;;;;;;;;;;6325577;28;20060;-79
2023/07/08 08:23:43;;;;;;;5.50;3.55;;;;;;;;;;6326735;28;20060;-78
2023/07/08 08:26:46;;;;;;;5.03;3.53;;;;;;;;;;6328173;28;20619;-80
2023/07/08 08:29:47;;;;;;;;;;;;;;;;;;6326435;28;20169;-78
2023/07/08 08:32:48;;;;;;;4.25;3.10;;;;;;;;;;6326935;28;20208;-77
2023/07/08 08:35:50;;;;;;;4.13;2.70;;;;;;;;;;6325343;28;20051;-78
2023/07/08 08:38:51;;;;;;;6.45;2.80;;;;;;;;;;6326308;28;20298;-78
2023/07/08 08:41:55;;;;;;;4.47;2.80;;;;;;;;;;6324517;28;20338;-78
2023/07/08 08:44:58;;;;;;;6.53;3.00;;;;;;;;;;6325558;28;20169;-78
2023/07/08 08:48:01;;;;;;;8.85;3.08;;;;;;;;;;6327708;28;20096;-77
2023/07/08 08:51:05;;;;;;;8.77;3.15;;;;;;;;;;6325672;28;20068;-78
2023/07/08 08:54:08;;;;;;;4.93;3.22;;;;;;;;;;6326192;28;20277;-78
2023/07/08 08:57:18;;;;;;;5.68;3.35;;;;;;;;;;6326332;28;20056;-77
2023/07/08 09:00:24;;;;;;;5.35;3.17;;;;;;;;;;6300495;28;20064;-79
2023/07/08 09:03:33;;;;;;;6.28;3.03;;;;;;;;;;6300674;28;20556;-78
2023/07/08 09:06:35;;;;;;;5.30;3.05;;;;;;;;;;6301166;28;20052;-78
2023/07/08 09:09:40;;;;;;;5.95;3.20;;;;;;;;;;6302524;28;20259;-78
2023/07/08 09:12:43;;;;;;;7.35;3.33;;;;;;;;;;6300796;28;20056;-78
2023/07/08 09:15:44;;;;;;;6.90;3.30;;;;;;;;;;6300194;28;20053;-77
2023/07/08 09:18:53;;;;;;;5.50;3.33;;;;;;;;;;6297236;28;20110;-77
2023/07/08 09:21:56;;;;;;;5.97;3.42;;;;;;;;;;6296487;28;20055;-79
2023/07/08 09:25:02;;;;;;;6.05;3.25;;;;;;;;;;6299446;28;20340;-82
2023/07/08 09:28:05;;;;;;;5.78;3.45;;;;;;;;;;6299991;28;20086;-81
2023/07/08 09:31:07;;;;;;;4.22;3.17;;;;;;;;;;6297252;28;20417;-79
2023/07/08 09:34:09;;;;;;;7.32;3.72;;;;;;;;;;6298371;28;20118;-80
2023/07/08 09:37:11;;;;;;;;;;;;;;;;;;6297933;28;20766;-80
2023/07/08 09:40:16;;;;;;;5.78;3.53;;;;;;;;;;6296593;28;19923;-78
2023/07/08 09:43:24;;;;;;;6.47;3.53;;;;;;;;;;6296659;28;20110;-80
2023/07/08 09:46:26;;;;;;;6.40;3.13;;;;;;;;;;6298189;28;20179;-81
2023/07/08 09:49:29;;;;;;;5.13;3.40;;;;;;;;;;6299079;28;20075;-81
2023/07/08 09:52:31;;;;;;;4.53;3.10;;;;;;;;;;6298784;28;20699;-80
2023/07/08 09:55:32;;;;;;;;;;;;;;;;;;6298852;28;20067;-79
2023/07/08 09:58:37;;;;;;;4.53;3.38;;;;;;;;;;6308054;28;19931;-80
2023/07/08 10:01:39;;;;;;;4.78;3.45;;;;;;;;;;6323530;28;20063;-83
2023/07/08 10:04:40;;;;;;;4.80;3.53;;;;;;;;;;6323454;28;20063;-80
2023/07/08 10:07:42;;;;;;;5.47;3.10;;;;;;;;;;6326132;28;20044;-80
2023/07/08 10:10:44;;;;;;;5.82;3.55;;;;;;;;;;6322937;28;20044;-80
2023/07/08 10:13:45;;;;;;;;;;;;;;;;;;6324156;28;20048;-80
2023/07/08 10:16:48;;;;;;;4.35;3.42;;;;;;;;;;6295943;28;19924;-80
2023/07/08 10:19:50;;;;;;;4.32;3.53;;;;;;;;;;6321254;28;20043;-80
2023/07/08 10:22:59;;;;;;;10.02;3.95;;;;;;;;;;6322510;28;20299;-80
2023/07/08 10:26:06;;;;;;;5.15;3.38;;;;;;;;;;6325690;28;20052;-79
2023/07/08 10:29:14;;;;;;;5.35;3.63;;;;;;;;;;6327762;28;20052;-79
2023/07/08 10:32:22;;;;;;;5.22;3.60;;;;;;;;;;6328605;28;20056;-78
2023/07/08 10:35:26;;;;;;;7.75;3.47;;;;;;;;;;6324479;28;20032;-79
2023/07/08 10:38:33;;;;;;;5.65;3.25;;;;;;;;;;6327954;28;20044;-78
2023/07/08 10:41:40;;;;;;;5.90;3.40;;;;;;;;;;6328328;28;20063;-77
2023/07/08 10:44:46;;;;;;;5.20;3.58;;;;;;;;;;6327694;28;20056;-78
2023/07/08 10:47:57;;;;;;;4.78;3.35;;;;;;;;;;6333749;28;20040;-77
2023/07/08 10:51:05;;;;;;;5.00;3.40;;;;;;;;;;6334754;28;20200;-77
2023/07/08 10:54:17;;;;;;;5.07;3.10;;;;;;;;;;6331309;28;20062;-79
2023/07/08 10:57:18;;;;;;;;;;;;;;;;;;6334560;28;20316;-78
2023/07/08 11:00:25;;;;;;;5.57;3.43;;;;;;;;;;6334631;28;19935;-79
2023/07/08 11:03:41;;;;;;;6.57;3.63;;;;;;;;;;6332911;28;20046;-81
2023/07/08 11:06:48;;;;;;;5.22;3.17;;;;;;;;;;6330283;28;20047;-80
2023/07/08 11:09:51;;;;;;;4.63;3.60;;;;;;;;;;6331633;28;20048;-80
2023/07/08 11:12:56;;;;;;;5.05;3.30;;;;;;;;;;6333587;28;20355;-81
2023/07/08 11:15:58;;;;;;;5.25;3.25;;;;;;;;;;6330346;28;20043;-79
2023/07/08 11:19:04;;;;;;;4.60;3.78;;;;;;;;;;6333035;28;20040;-80
2023/07/08 11:22:10;;;;;;;5.00;3.25;;;;;;;;;;6330955;28;20048;-81
2023/07/08 11:25:17;;;;;;;4.80;3.42;;;;;;;;;;6331017;28;20079;-81
2023/07/08 11:28:21;;;;;;;4.28;2.90;;;;;;;;;;6332322;28;20235;-79
2023/07/08 11:31:24;;;;;;;4.82;3.40;;;;;;;;;;6330752;28;20048;-79
2023/07/08 11:34:28;;;;;;;5.72;3.28;;;;;;;;;;6330394;28;20052;-79
2023/07/08 11:37:31;;;;;;;4.40;3.30;;;;;;;;;;6331686;28;20319;-80
2023/07/08 11:40:33;;;;;;;4.78;3.08;;;;;;;;;;6331924;28;20040;-79
2023/07/08 11:43:36;;;;;;;5.28;3.10;;;;;;;;;;6333856;28;20048;-79
2023/07/08 11:46:53;;;;;;;3.35;2.80;;;;;;;;;;6330512;28;20152;-81
2023/07/08 11:49:55;;;;;;;3.95;3.25;;;;;;;;;;6329384;28;20066;-82
2023/07/08 11:52:56;;;;;;;;;;;;;;;;;;6329410;28;20055;-78
2023/07/08 11:56:00;;;;;;;5.57;3.50;;;;;;;;;;6330783;28;19915;-80
2023/07/08 11:59:10;;;;;;;4.95;3.33;;;;;;;;;;6329843;28;20051;-80
2023/07/08 12:02:13;;;;;;;5.18;3.10;;;;;;;;;;6331902;28;20056;-80
2023/07/08 12:05:15;;;;;;;5.38;3.63;;;;;;;;;;6330578;28;20111;-81
2023/07/08 12:08:16;;;;;;;;;;;;;;;;;;6330154;28;20068;-80
2023/07/08 12:11:19;;;;;;;7.30;3.47;;;;;;;;;;6331582;28;19931;-81
2023/07/08 12:14:21;;;;;;;6.65;3.90;;;;;;;;;;6329423;28;20059;-81
2023/07/08 12:17:22;;;;;;;4.80;3.38;;;;;;;;;;6332150;28;20047;-80
2023/07/08 12:20:25;;;;;;;5.65;3.45;;;;;;;;;;6331917;28;20230;-79
2023/07/08 12:23:27;;;;;;;4.38;3.50;;;;;;;;;;6332673;28;20051;-79
2023/07/08 12:26:30;;;;;;;5.45;3.30;;;;;;;;;;6332665;28;20052;-79
2023/07/08 12:29:32;;;;;;;4.43;3.42;;;;;;;;;;6333044;28;20053;-79
2023/07/08 12:32:33;;;;;;;4.40;3.30;;;;;;;;;;6332584;28;20055;-80
2023/07/08 12:35:35;;;;;;;7.93;3.22;;;;;;;;;;6332818;28;20063;-79
2023/07/08 12:38:38;;;;;;;5.88;3.58;;;;;;;;;;6332523;28;20058;-80
2023/07/08 12:41:42;;;;;;;7.07;3.25;;;;;;;;;;6331314;28;20274;-81
2023/07/08 12:44:44;;;;;;;5.45;3.90;;;;;;;;;;6325943;28;20059;-80
2023/07/08 12:47:46;;;;;;;4.03;3.60;;;;;;;;;;6326619;28;20285;-79
2023/07/08 12:50:49;;;;;;;4.32;3.15;;;;;;;;;;6326113;28;20059;-77
2023/07/08 12:53:52;;;;;;;4.85;3.30;;;;;;;;;;6325570;28;20409;-81
2023/07/08 12:56:55;;;;;;;4.13;3.42;;;;;;;;;;6325882;28;20252;-80
2023/07/08 12:59:56;;;;;;;4.07;3.30;;;;;;;;;;6305397;28;20053;-79
2023/07/08 13:02:59;;;;;;;5.45;3.80;;;;;;;;;;6302304;28;20067;-80
2023/07/08 13:06:02;;;;;;;5.47;3.22;;;;;;;;;;6302307;28;20142;-79
2023/07/08 13:09:08;;;;;;;5.40;3.55;;;;;;;;;;6301126;28;20041;-79
2023/07/08 13:12:15;;;;;;;5.13;3.78;;;;;;;;;;6303171;28;20045;-79
2023/07/08 13:15:20;;;;;;;6.25;3.60;;;;;;;;;;6301780;28;20075;-80
2023/07/08 13:18:30;;;;;;;5.57;3.65;;;;;;;;;;6300729;28;20098;-80
2023/07/08 13:21:32;;;;;;;4.85;3.58;;;;;;;;;;6300549;28;20078;-77
2023/07/08 13:24:34;;;;;;;5.13;3.22;;;;;;;;;;6300643;28;20052;-79
2023/07/08 13:27:37;;;;;;;4.72;3.35;;;;;;;;;;6302531;28;20055;-80
2023/07/08 13:30:38;;;;;;;5.68;3.45;;;;;;;;;;6300115;28;20052;-79
2023/07/08 13:33:40;;;;;;;;;;;;;;;;;;6301442;28;20066;-81
2023/07/08 13:36:42;;;;;;;7.95;3.75;;;;;;;;;;6301039;28;19928;-79
2023/07/08 13:39:45;;;;;;;3.80;3.30;;;;;;;;;;6301389;28;20060;-79
2023/07/08 13:42:54;;;;;;;4.10;3.45;;;;;;;;;;6300182;28;20248;-80
2023/07/08 13:45:55;;;;;;;6.28;3.67;;;;;;;;;;6300645;28;20087;-79
2023/07/08 13:48:57;;;;;;;4.68;3.53;;;;;;;;;;6299806;28;20052;-81
2023/07/08 13:52:09;;;;;;;5.45;3.83;;;;;;;;;;6300898;28;20413;-80
2023/07/08 13:55:16;;;;;;;5.07;3.47;;;;;;;;;;6299783;28;20059;-81
2023/07/08 13:58:19;;;;;;;4.15;3.10;;;;;;;;;;6301503;28;20064;-80
2023/07/08 14:01:21;;;;;;;6.72;3.92;;;;;;;;;;6289009;28;20049;-80
2023/07/08 14:04:26;;;;;;;4.70;3.90;;;;;;;;;;6301775;28;20048;-79
2023/07/08 14:07:29;;;;;;;4.85;3.33;;;;;;;;;;6301600;28;20060;-79
2023/07/08 14:10:30;;;;;;;6.13;3.63;;;;;;;;;;6300933;28;20056;-78
2023/07/08 14:13:34;;;;;;;6.80;3.85;;;;;;;;;;6301039;28;20048;-77
2023/07/08 14:16:37;;;;;;;4.90;3.60;;;;;;;;;;6300505;28;20044;-81
2023/07/08 14:19:39;;;;;;;4.53;3.72;;;;;;;;;;6302824;28;20307;-80
2023/07/08 14:22:40;;;;;;;5.35;3.55;;;;;;;;;;6300270;28;20056;-82
2023/07/08 14:25:42;;;;;;;6.93;3.95;;;;;;;;;;6300540;28;20055;-81
2023/07/08 14:28:44;;;;;;;6.70;3.78;;;;;;;;;;6301631;28;20052;-78
2023/07/08 14:31:46;;;;;;;4.63;3.60;;;;;;;;;;6300331;28;20079;-79
2023/07/08 14:34:50;;;;;;;5.38;3.70;;;;;;;;;;6299772;28;20158;-79
2023/07/08 14:37:53;;;;;;;4.95;3.70;;;;;;;;;;6300759;28;20049;-80
2023/07/08 14:40:55;;;;;;;6.32;3.72;;;;;;;;;;6299556;28;20386;-79
2023/07/08 14:43:58;;;;;;;8.55;3.85;;;;;;;;;;6301194;28;20372;-79
2023/07/08 14:46:59;;;;;;;4.32;3.47;;;;;;;;;;6299954;28;20049;-80
2023/07/08 14:50:01;;;;;;;5.97;3.43;;;;;;;;;;6301258;28;20051;-79
2023/07/08 14:53:02;;;;;;;9.63;4.03;;;;;;;;;;6299947;28;20439;-79
2023/07/08 14:56:07;;;;;;;6.17;3.60;;;;;;;;;;6300797;28;20120;-79
2023/07/08 14:59:13;;;;;;;8.68;3.58;;;;;;;;;;6314680;28;20362;-79
2023/07/08 15:02:20;;;;;;;5.03;3.58;;;;;;;;;;6324430;28;20043;-79
2023/07/08 15:05:22;;;;;;;6.25;4.00;;;;;;;;;;6322898;28;20070;-79
2023/07/08 15:08:23;;;;;;;5.18;3.90;;;;;;;;;;6324775;28;20213;-79
2023/07/08 15:11:26;;;;;;;6.15;3.72;;;;;;;;;;6325788;28;20052;-79
2023/07/08 15:14:29;;;;;;;6.03;3.90;;;;;;;;;;6329446;28;20056;-79
2023/07/08 15:17:30;;;;;;;6.03;3.88;;;;;;;;;;6329334;28;20063;-79
2023/07/08 15:20:33;;;;;;;4.80;3.27;;;;;;;;;;6328141;28;20078;-79
2023/07/08 15:23:34;;;;;;;4.57;3.30;;;;;;;;;;6329331;28;20056;-80
2023/07/08 15:26:36;;;;;;;5.72;3.92;;;;;;;;;;6329097;28;20063;-79
2023/07/08 15:29:39;;;;;;;7.22;4.13;;;;;;;;;;6329816;28;20059;-79
2023/07/08 15:32:40;;;;;;;6.32;3.80;;;;;;;;;;6328082;28;20048;-79
2023/07/08 15:35:43;;;;;;;4.97;3.60;;;;;;;;;;6328893;28;20064;-79
2023/07/08 15:38:44;;;;;;;;;;;;;;;;;;6329474;28;20233;-79
2023/07/08 15:41:46;;;;;;;5.70;3.60;;;;;;;;;;6329047;28;19915;-79
2023/07/08 15:44:52;;;;;;;8.95;4.00;;;;;;;;;;6326687;28;20052;-79
2023/07/08 15:47:53;;;;;;;5.47;3.88;;;;;;;;;;6327866;28;20044;-80
2023/07/08 15:50:55;;;;;;;6.90;3.80;;;;;;;;;;6327645;28;20040;-80
2023/07/08 15:53:56;;;;;;;6.65;3.95;;;;;;;;;;6328489;28;20143;-79
2023/07/08 15:56:58;;;;;;;5.40;4.13;;;;;;;;;;6326980;28;20056;-79
2023/07/08 16:00:01;;;;;;;5.40;4.18;;;;;;;;;;6327723;28;20056;-80
2023/07/08 16:03:05;;;;;;;10.32;4.22;;;;;;;;;;6327701;28;20051;-80
2023/07/08 16:06:09;;;;;;;6.18;3.47;;;;;;;;;;6330034;28;20054;-79
2023/07/08 16:09:10;;;;;;;5.10;4.10;;;;;;;;;;6328123;28;20075;-79
2023/07/08 16:12:13;;;;;;;6.38;4.15;;;;;;;;;;6329317;28;20064;-79
2023/07/08 16:15:17;;;;;;;7.43;3.58;;;;;;;;;;6327511;28;20063;-80
2023/07/08 16:18:19;;;;;;;5.63;4.10;;;;;;;;;;6327576;28;20057;-79
2023/07/08 16:21:20;;;;;;;5.75;3.58;;;;;;;;;;6327882;28;20125;-80
2023/07/08 16:24:22;;;;;;;6.20;4.03;;;;;;;;;;6327374;28;20052;-79
2023/07/08 16:27:23;;;;;;;6.90;4.63;;;;;;;;;;6327538;28;20332;-80
2023/07/08 16:30:27;;;;;;;5.75;4.07;;;;;;;;;;6326393;28;20047;-80
2023/07/08 16:33:29;;;;;;;6.47;3.90;;;;;;;;;;6326584;28;20355;-79
2023/07/08 16:36:30;;;;;;;8.45;4.50;;;;;;;;;;6325713;28;20062;-79
2023/07/08 16:39:32;;;;;;;7.68;4.03;;;;;;;;;;6326067;28;20360;-79
2023/07/08 16:42:33;;;;;;;6.95;4.20;;;;;;;;;;6325909;28;20054;-79
2023/07/08 16:45:36;;;;;;;5.60;3.70;;;;;;;;;;6326159;28;20043;-80
2023/07/08 16:48:38;;;;;;;5.65;3.72;;;;;;;;;;6327258;28;20060;-79
2023/07/08 16:51:39;;;;;;;6.33;3.87;;;;;;;;;;6326531;28;20392;-79
2023/07/08 16:54:41;;;;;;;4.80;3.55;;;;;;;;;;6325639;28;20059;-79
2023/07/08 16:57:43;;;;;;;6.32;3.80;;;;;;;;;;6326312;28;20067;-81
2023/07/08 17:00:46;;;;;;;6.43;4.18;;;;;;;;;;6326251;28;20063;-78
2023/07/08 17:03:48;;;;;;;5.72;3.65;;;;;;;;;;6327413;28;20043;-79
2023/07/08 17:06:49;;;;;;;5.75;3.70;;;;;;;;;;6326100;28;20052;-79
2023/07/08 17:09:51;;;;;;;5.65;3.92;;;;;;;;;;6325848;28;20056;-79
2023/07/08 17:12:53;;;;;;;6.22;4.05;;;;;;;;;;6326573;28;20047;-79
2023/07/08 17:15:56;;;;;;;8.10;4.23;;;;;;;;;;6325374;28;20059;-80
2023/07/08 17:18:58;;;;;;;7.18;4.00;;;;;;;;;;6322770;28;20050;-81
2023/07/08 17:22:00;;;;;;;7.53;4.25;;;;;;;;;;6326946;28;20103;-78
2023/07/08 17:25:02;;;;;;;5.85;4.15;;;;;;;;;;6320638;28;20162;-78
2023/07/08 17:28:04;;;;;;;7.63;4.03;;;;;;;;;;6322753;28;20081;-78
2023/07/08 17:31:10;;;;;;;9.20;4.28;;;;;;;;;;6324491;28;20051;-80
2023/07/08 17:34:15;;;;;;;5.90;3.53;;;;;;;;;;6325030;28;20055;-79
2023/07/08 17:37:17;;;;;;;7.93;4.40;;;;;;;;;;6313805;28;20052;-79
2023/07/08 17:40:20;;;;;;;6.10;3.83;;;;;;;;;;6325808;28;20056;-78
2023/07/08 17:43:21;;;;;;;;;;;;;;;;;;6325201;28;20052;-78
2023/07/08 17:46:25;;;;;;;7.05;3.92;;;;;;;;;;6323584;28;20218;-80
2023/07/08 17:49:26;;;;;;;8.93;4.05;;;;;;;;;;6324339;28;20063;-80
2023/07/08 17:52:28;;;;;;;5.68;4.13;;;;;;;;;;6324364;28;20248;-79
2023/07/08 17:55:29;;;;;;;6.03;3.90;;;;;;;;;;6325283;28;20044;-78
2023/07/08 17:58:32;;;;;;;7.45;3.92;;;;;;;;;;6323725;28;20044;-78
2023/07/08 18:01:35;;;;;;;7.32;4.13;;;;;;;;;;6324596;28;20137;-77
2023/07/08 18:04:37;;;;;;;5.30;3.80;;;;;;;;;;6325036;28;20052;-77
2023/07/08 18:07:38;;;;;;;6.10;3.65;;;;;;;;;;6325364;28;20068;-79
2023/07/08 18:10:40;;;;;;;6.15;4.32;;;;;;;;;;6324839;28;20060;-80
2023/07/08 18:13:42;;;;;;;7.90;3.97;;;;;;;;;;6324996;28;20052;-78
2023/07/08 18:16:45;;;;;;;5.35;3.90;;;;;;;;;;6325349;28;20324;-79
2023/07/08 18:19:46;;;;;;;8.95;4.15;;;;;;;;;;6324493;28;20075;-80